Time;durP1;ratioP1;P1;durP2;ratioP2;P2;SDS_P1;SDS_P2;PMS_P1;PMS_P2;Temp;Humidity;BMP_temperature;BMP_pressure;BME280_temperature;BME280_humidity;BME280_pressure;Samples;Min_cycle;Max_cycle;Signal;HPM_P1;HPM_P2
2022/11/23 00:01:23;;;;;;;18.17;12.73;;;7.60;96.40;;;;;;4994510;28;20060;-78
2022/11/23 00:03:52;;;;;;;18.83;12.95;;;7.60;96.20;;;;;;4994570;28;20046;-78
2022/11/23 00:06:20;;;;;;;16.48;12.73;;;7.60;96.30;;;;;;4994881;28;20125;-79
2022/11/23 00:08:46;;;;;;;16.80;12.80;;;7.60;96.20;;;;;;4994380;28;20494;-78
2022/11/23 00:11:12;;;;;;;17.70;12.02;;;7.60;96.30;;;;;;4978429;28;20046;-78
2022/11/23 00:13:39;;;;;;;19.42;13.45;;;7.60;96.30;;;;;;4994715;28;20053;-79
2022/11/23 00:16:07;;;;;;;19.50;13.00;;;7.60;96.40;;;;;;4994435;28;20038;-79
2022/11/23 00:18:33;;;;;;;17.05;12.77;;;7.60;96.40;;;;;;4978274;28;20104;-80
2022/11/23 00:20:58;;;;;;;21.42;14.20;;;7.60;96.50;;;;;;4994254;28;20039;-79
2022/11/23 00:23:24;;;;;;;17.98;13.57;;;7.60;96.60;;;;;;4978376;28;20043;-79
2022/11/23 00:25:49;;;;;;;21.73;14.18;;;7.60;96.60;;;;;;4977944;28;20046;-79
2022/11/23 00:28:15;;;;;;;20.20;12.77;;;7.60;96.70;;;;;;4994177;28;20043;-79
2022/11/23 00:30:41;;;;;;;21.50;13.35;;;7.60;96.60;;;;;;4961100;28;20136;-78
2022/11/23 00:33:06;;;;;;;16.33;13.57;;;7.60;96.60;;;;;;4994308;28;20073;-79
2022/11/23 00:35:32;;;;;;;19.50;13.57;;;7.60;96.80;;;;;;4994055;28;20406;-79
2022/11/23 00:37:58;;;;;;;16.83;13.32;;;7.60;96.90;;;;;;4977774;28;20050;-78
2022/11/23 00:40:23;;;;;;;18.92;13.88;;;7.60;96.90;;;;;;4977740;28;20038;-79
2022/11/23 00:42:49;;;;;;;21.98;14.18;;;7.50;96.90;;;;;;4994074;28;20034;-79
2022/11/23 00:45:15;;;;;;;18.73;13.82;;;7.60;96.90;;;;;;4993843;28;20049;-78
2022/11/23 00:47:40;;;;;;;22.67;14.32;;;7.60;97.00;;;;;;4993689;28;20038;-79
2022/11/23 00:50:06;;;;;;;29.98;19.17;;;7.60;97.10;;;;;;4977512;28;20092;-79
2022/11/23 00:52:32;;;;;;;40.80;24.48;;;7.50;97.10;;;;;;4977764;28;20046;-79
2022/11/23 00:54:57;;;;;;;44.42;25.15;;;7.50;97.00;;;;;;4993913;28;20045;-79
2022/11/23 00:57:23;;;;;;;61.90;29.55;;;7.60;97.20;;;;;;4993544;28;20470;-79
2022/11/23 00:59:49;;;;;;;125.25;52.17;;;7.60;97.20;;;;;;4977350;28;20042;-79
2022/11/23 01:02:14;;;;;;;127.65;50.58;;;7.60;97.40;;;;;;4977119;28;20062;-79
2022/11/23 01:04:40;;;;;;;228.48;87.15;;;7.60;97.40;;;;;;4977297;28;20038;-79
2022/11/23 01:07:06;;;;;;;120.95;50.70;;;7.60;97.30;;;;;;4977208;28;20077;-79
2022/11/23 01:09:31;;;;;;;160.32;68.07;;;7.60;97.30;;;;;;4993556;28;20045;-78
2022/11/23 01:11:57;;;;;;;236.25;88.20;;;7.60;97.50;;;;;;4977075;28;20038;-79
2022/11/23 01:14:23;;;;;;;207.63;80.43;;;7.60;97.40;;;;;;4977333;28;20406;-79
2022/11/23 01:16:48;;;;;;;65.13;37.72;;;7.60;97.30;;;;;;4993097;28;20039;-79
2022/11/23 01:19:16;;;;;;;37.28;27.15;;;7.60;97.30;;;;;;4993158;28;20038;-79
2022/11/23 01:21:43;;;;;;;57.22;45.58;;;7.70;97.50;;;;;;4993125;28;20042;-79
2022/11/23 01:24:13;;;;;;;32.05;25.40;;;7.70;97.40;;;;;;4961023;28;20034;-78
2022/11/23 01:26:40;;;;;;;30.23;23.27;;;7.70;97.50;;;;;;4993046;28;20129;-79
2022/11/23 01:29:06;;;;;;;24.85;18.50;;;7.60;97.40;;;;;;4992901;28;20486;-79
2022/11/23 01:31:31;;;;;;;25.38;19.42;;;7.70;97.40;;;;;;4993251;28;20112;-78
2022/11/23 01:34:00;;;;;;;24.35;18.15;;;7.70;97.60;;;;;;4992992;28;20038;-79
2022/11/23 01:36:28;;;;;;;24.95;18.83;;;7.60;97.50;;;;;;4992827;28;20042;-79
2022/11/23 01:38:55;;;;;;;22.27;17.35;;;7.70;97.40;;;;;;4992862;28;20030;-80
2022/11/23 01:41:33;;;;;;;22.50;15.25;;;7.60;97.50;;;;;;4992855;28;20068;-79
2022/11/23 01:43:59;;;;;;;21.95;15.43;;;7.70;97.50;;;;;;4991950;28;20108;-79
2022/11/23 01:46:25;;;;;;;20.35;15.32;;;7.70;97.50;;;;;;4976672;28;20101;-79
2022/11/23 01:48:54;;;;;;;22.23;16.15;;;7.70;97.50;;;;;;4976636;28;20038;-79
2022/11/23 01:51:27;;;;;;;24.27;15.38;;;7.70;97.60;;;;;;4992979;28;20065;-78
2022/11/23 01:53:56;;;;;;;17.80;14.00;;;7.70;97.50;;;;;;4992688;28;20043;-79
2022/11/23 01:56:29;;;;;;;25.00;15.90;;;7.70;97.50;;;;;;4992451;28;20046;-79
2022/11/23 01:58:59;;;;;;;29.98;16.15;;;7.70;97.50;;;;;;4992832;28;20038;-79
2022/11/23 02:01:25;;;;;;;22.52;14.95;;;7.70;97.50;;;;;;4992338;28;20486;-79
2022/11/23 02:03:53;;;;;;;23.92;15.95;;;7.60;97.40;;;;;;4992535;28;20047;-79
2022/11/23 02:06:21;;;;;;;25.90;16.67;;;7.70;97.50;;;;;;4992485;28;20039;-79
2022/11/23 02:08:48;;;;;;;27.73;15.82;;;7.70;97.40;;;;;;4992323;28;20038;-79
2022/11/23 02:11:14;;;;;;;25.48;16.33;;;7.70;97.50;;;;;;4992551;28;20125;-79
2022/11/23 02:13:42;;;;;;;25.17;16.10;;;7.70;97.50;;;;;;4976682;28;20473;-79
2022/11/23 02:16:11;;;;;;;27.38;16.50;;;7.70;97.40;;;;;;4992438;28;20050;-79
2022/11/23 02:18:41;;;;;;;24.42;16.55;;;7.70;97.50;;;;;;4992301;28;20050;-79
2022/11/23 02:21:07;;;;;;;28.27;16.77;;;7.70;97.70;;;;;;4992628;28;20125;-79
2022/11/23 02:23:56;;;;;;;28.00;16.80;;;7.70;97.60;;;;;;4992516;28;20570;-79
2022/11/23 02:26:28;;;;;;;27.40;16.95;;;7.70;97.50;;;;;;4992343;28;20039;-79
2022/11/23 02:29:05;;;;;;;27.67;17.67;;;7.70;97.60;;;;;;4992263;28;20117;-80
2022/11/23 02:31:31;;;;;;;29.45;16.35;;;7.70;97.50;;;;;;4992373;28;20034;-79
2022/11/23 02:33:57;;;;;;;32.83;18.90;;;7.70;97.50;;;;;;4976219;28;20430;-79
2022/11/23 02:36:27;;;;;;;33.58;18.25;;;7.70;97.50;;;;;;4992162;28;20039;-79
2022/11/23 02:38:55;;;;;;;33.45;19.30;;;7.70;97.60;;;;;;4992152;28;20035;-79
2022/11/23 02:41:21;;;;;;;28.92;18.88;;;7.70;97.40;;;;;;4992395;28;20132;-80
2022/11/23 02:43:51;;;;;;;31.35;19.95;;;7.70;97.40;;;;;;4992100;28;20204;-79
2022/11/23 02:46:17;;;;;;;30.58;19.63;;;7.70;97.40;;;;;;4992097;28;20042;-79
2022/11/23 02:48:43;;;;;;;35.58;20.17;;;7.70;97.60;;;;;;4976068;28;20041;-79
2022/11/23 02:51:08;;;;;;;33.10;20.42;;;7.70;97.50;;;;;;4992061;28;20070;-79
2022/11/23 02:53:34;;;;;;;30.42;19.45;;;7.80;97.50;;;;;;4976067;28;20166;-79
2022/11/23 02:56:00;;;;;;;29.38;20.55;;;7.70;97.40;;;;;;4979967;28;20081;-79
2022/11/23 02:58:25;;;;;;;32.15;19.50;;;7.70;97.40;;;;;;4979592;28;20050;-79
2022/11/23 03:00:51;;;;;;;42.08;21.27;;;7.60;97.40;;;;;;4995910;28;21615;-79
2022/11/23 03:03:16;;;;;;;34.95;21.13;;;7.70;97.50;;;;;;4995755;28;20483;-79
2022/11/23 03:05:42;;;;;;;36.63;21.50;;;7.70;97.50;;;;;;4979529;28;20038;-79
2022/11/23 03:08:08;;;;;;;37.67;22.20;;;7.70;97.50;;;;;;4995621;28;20050;-79
2022/11/23 03:10:34;;;;;;;35.42;21.60;;;7.60;97.60;;;;;;4995743;28;20044;-79
2022/11/23 03:12:59;;;;;;;36.83;21.55;;;7.70;97.60;;;;;;4995799;28;20054;-79
2022/11/23 03:15:25;;;;;;;37.65;22.27;;;7.70;97.50;;;;;;4963332;28;20508;-79
2022/11/23 03:17:51;;;;;;;36.45;23.25;;;7.70;97.50;;;;;;4995522;28;20482;-79
2022/11/23 03:20:17;;;;;;;38.95;23.55;;;7.70;97.60;;;;;;4979380;28;20413;-79
2022/11/23 03:22:43;;;;;;;36.33;22.10;;;7.60;97.50;;;;;;4979359;28;20073;-79
2022/11/23 03:25:09;;;;;;;38.17;23.67;;;7.70;97.40;;;;;;4995703;28;20124;-79
2022/11/23 03:27:36;;;;;;;40.38;22.73;;;7.70;97.60;;;;;;4995423;28;20574;-79
2022/11/23 03:30:02;;;;;;;41.33;23.92;;;7.70;97.60;;;;;;4995109;28;20042;-79
2022/11/23 03:32:28;;;;;;;43.75;23.75;;;7.70;97.70;;;;;;4995211;28;20097;-79
2022/11/23 03:34:53;;;;;;;38.45;23.50;;;7.70;97.60;;;;;;4978992;28;20042;-79
2022/11/23 03:37:19;;;;;;;41.40;24.33;;;7.60;97.60;;;;;;4995069;28;20080;-79
2022/11/23 03:39:44;;;;;;;38.50;22.73;;;7.70;97.60;;;;;;4978848;28;20077;-79
2022/11/23 03:42:10;;;;;;;39.60;23.48;;;7.60;97.50;;;;;;4978904;28;20060;-79
2022/11/23 03:44:36;;;;;;;40.08;23.33;;;7.70;97.50;;;;;;4995050;28;20450;-79
2022/11/23 03:47:02;;;;;;;41.30;23.98;;;7.70;97.60;;;;;;4994911;28;20414;-79
2022/11/23 03:49:27;;;;;;;37.35;24.45;;;7.70;97.50;;;;;;4995090;28;20061;-79
2022/11/23 03:51:53;;;;;;;47.38;24.23;;;7.70;97.60;;;;;;4994901;28;20517;-80
2022/11/23 03:54:19;;;;;;;40.38;25.80;;;7.70;97.50;;;;;;4978674;28;20514;-79
2022/11/23 03:56:44;;;;;;;41.72;24.95;;;7.70;97.70;;;;;;4994734;28;20042;-79
2022/11/23 03:59:11;;;;;;;40.13;24.83;;;7.70;97.70;;;;;;4994724;28;20105;-79
2022/11/23 04:01:37;;;;;;;40.80;24.80;;;7.60;97.70;;;;;;4994651;28;20069;-79
2022/11/23 04:04:02;;;;;;;40.83;24.08;;;7.60;97.60;;;;;;4994656;28;20450;-79
2022/11/23 04:06:28;;;;;;;44.13;25.90;;;7.60;97.60;;;;;;4993555;28;20042;-79
2022/11/23 04:08:54;;;;;;;39.97;24.35;;;7.60;97.60;;;;;;4978302;28;20045;-79
2022/11/23 04:11:19;;;;;;;42.72;24.17;;;7.60;97.60;;;;;;4994927;28;20088;-79
2022/11/23 04:13:45;;;;;;;44.90;24.80;;;7.60;97.60;;;;;;4994478;28;20506;-79
2022/11/23 04:16:11;;;;;;;43.63;25.10;;;7.60;97.60;;;;;;4994313;28;20039;-79
2022/11/23 04:18:36;;;;;;;42.17;26.20;;;7.50;97.60;;;;;;4978195;28;20042;-79
2022/11/23 04:21:02;;;;;;;42.05;25.13;;;7.50;97.60;;;;;;4994571;28;20046;-79
2022/11/23 04:23:28;;;;;;;48.03;26.83;;;7.50;97.50;;;;;;4994267;28;20096;-79
2022/11/23 04:25:53;;;;;;;37.70;24.67;;;7.50;97.60;;;;;;4961972;28;20034;-79
2022/11/23 04:28:19;;;;;;;41.33;25.45;;;7.50;97.50;;;;;;4994198;28;20112;-79
2022/11/23 04:30:45;;;;;;;43.30;26.83;;;7.50;97.50;;;;;;4978172;28;20133;-79
2022/11/23 04:33:10;;;;;;;46.17;25.50;;;7.50;97.60;;;;;;4977927;28;20511;-79
2022/11/23 04:35:36;;;;;;;46.30;26.88;;;7.50;97.70;;;;;;4993997;28;20046;-79
2022/11/23 04:38:02;;;;;;;46.78;26.80;;;7.50;97.60;;;;;;4977753;28;20124;-79
2022/11/23 04:40:30;;;;;;;41.22;25.08;;;7.50;97.70;;;;;;4993889;28;20085;-79
2022/11/23 04:42:57;;;;;;;39.88;25.00;;;7.50;97.60;;;;;;4977714;28;20041;-79
2022/11/23 04:45:22;;;;;;;37.08;24.58;;;7.60;97.70;;;;;;4993776;28;20042;-79
2022/11/23 04:47:48;;;;;;;46.60;24.80;;;7.60;97.70;;;;;;4994036;28;20109;-79
2022/11/23 04:50:15;;;;;;;38.92;24.10;;;7.60;97.70;;;;;;4993688;28;20038;-78
2022/11/23 04:52:40;;;;;;;42.00;25.73;;;7.60;97.60;;;;;;4977951;28;20417;-79
2022/11/23 04:55:06;;;;;;;42.55;25.02;;;7.60;97.50;;;;;;4961502;28;20046;-79
2022/11/23 04:57:32;;;;;;;38.55;25.30;;;7.60;97.50;;;;;;4993669;28;20050;-79
2022/11/23 04:59:58;;;;;;;47.15;26.67;;;7.60;97.40;;;;;;4977288;28;20113;-79
2022/11/23 05:02:24;;;;;;;43.22;26.60;;;7.60;97.30;;;;;;4993427;28;20050;-79
2022/11/23 05:04:49;;;;;;;45.13;26.42;;;7.60;97.40;;;;;;4993472;28;20054;-79
2022/11/23 05:07:15;;;;;;;45.47;27.42;;;7.60;97.30;;;;;;4977169;28;20101;-78
2022/11/23 05:09:42;;;;;;;48.67;27.27;;;7.50;97.30;;;;;;4977189;28;20453;-79
2022/11/23 05:12:08;;;;;;;45.78;28.25;;;7.50;97.40;;;;;;4945530;28;20046;-79
2022/11/23 05:14:33;;;;;;;44.67;28.00;;;7.50;97.40;;;;;;4977209;28;20042;-79
2022/11/23 05:16:59;;;;;;;45.85;27.40;;;7.50;97.40;;;;;;4976805;28;20081;-78
2022/11/23 05:19:25;;;;;;;54.08;28.35;;;7.50;97.40;;;;;;4977066;28;20046;-79
2022/11/23 05:21:50;;;;;;;45.10;27.83;;;7.50;97.40;;;;;;4993166;28;20045;-78
2022/11/23 05:24:16;;;;;;;53.10;29.73;;;7.50;97.50;;;;;;4975582;28;20046;-79
2022/11/23 05:26:42;;;;;;;47.75;28.20;;;7.40;97.60;;;;;;4957567;28;20046;-78
2022/11/23 05:29:07;;;;;;;45.72;28.25;;;7.40;97.60;;;;;;4957802;28;20046;-79
2022/11/23 05:31:33;;;;;;;54.80;29.48;;;7.40;97.60;;;;;;4957823;28;20050;-79
2022/11/23 05:33:59;;;;;;;52.97;31.08;;;7.40;97.60;;;;;;4973564;28;20513;-77
2022/11/23 05:36:24;;;;;;;51.95;30.75;;;7.40;97.60;;;;;;4975827;28;20043;-79
2022/11/23 05:38:51;;;;;;;56.88;32.53;;;7.40;97.70;;;;;;4976612;28;20129;-79
2022/11/23 05:41:16;;;;;;;57.45;30.98;;;7.40;97.70;;;;;;4993084;28;20395;-76
2022/11/23 05:43:42;;;;;;;52.03;31.05;;;7.40;97.70;;;;;;4992885;28;20034;-77
2022/11/23 05:46:08;;;;;;;57.83;34.55;;;7.40;97.80;;;;;;4976803;28;20081;-80
2022/11/23 05:48:34;;;;;;;56.97;35.13;;;7.40;97.80;;;;;;4976460;28;20045;-76
2022/11/23 05:50:59;;;;;;;57.67;34.00;;;7.40;97.70;;;;;;4992683;28;20078;-77
2022/11/23 05:53:25;;;;;;;60.42;32.58;;;7.50;97.60;;;;;;4992897;28;20067;-78
2022/11/23 05:55:51;;;;;;;59.70;33.28;;;7.50;97.60;;;;;;4992655;28;20048;-79
2022/11/23 05:58:16;;;;;;;52.58;32.60;;;7.50;97.60;;;;;;4992404;28;20046;-76
2022/11/23 06:00:42;;;;;;;57.97;32.28;;;7.50;97.40;;;;;;4992584;28;20076;-77
2022/11/23 06:03:08;;;;;;;53.97;31.13;;;7.50;97.60;;;;;;4992523;28;20487;-78
2022/11/23 06:05:33;;;;;;;52.47;30.80;;;7.50;97.70;;;;;;4976643;28;20038;-77
2022/11/23 06:07:59;;;;;;;54.35;31.40;;;7.50;97.50;;;;;;4992428;28;20498;-77
2022/11/23 06:10:25;;;;;;;53.47;30.85;;;7.50;97.60;;;;;;4960226;28;20394;-76
2022/11/23 06:12:51;;;;;;;52.78;29.95;;;7.60;97.80;;;;;;4992551;28;20133;-76
2022/11/23 06:15:17;;;;;;;52.60;29.73;;;7.50;97.80;;;;;;4992355;28;20482;-77
2022/11/23 06:17:43;;;;;;;48.50;29.13;;;7.50;97.70;;;;;;4976213;28;20043;-75
2022/11/23 06:20:09;;;;;;;53.38;28.33;;;7.60;97.70;;;;;;4992638;28;20030;-76
2022/11/23 06:22:34;;;;;;;49.10;27.95;;;7.60;97.70;;;;;;4992514;28;20057;-77
2022/11/23 06:25:00;;;;;;;50.13;27.58;;;7.50;97.60;;;;;;4979748;28;20483;-76
2022/11/23 06:27:26;;;;;;;45.40;27.45;;;7.50;97.70;;;;;;4956765;28;20077;-76
2022/11/23 06:29:52;;;;;;;45.45;24.67;;;7.60;97.60;;;;;;4975126;28;20074;-76
2022/11/23 06:32:17;;;;;;;42.65;24.13;;;7.60;97.60;;;;;;4976847;28;20101;-77
2022/11/23 06:34:43;;;;;;;41.55;23.90;;;7.50;97.60;;;;;;4962417;28;20522;-78
2022/11/23 06:37:09;;;;;;;43.08;24.05;;;7.50;97.60;;;;;;4996159;28;20046;-77
2022/11/23 06:39:35;;;;;;;40.33;23.45;;;7.50;97.50;;;;;;4979905;28;20509;-78
2022/11/23 06:42:00;;;;;;;40.38;22.02;;;7.50;97.40;;;;;;4979767;28;20050;-78
2022/11/23 06:44:26;;;;;;;37.75;21.67;;;7.60;97.30;;;;;;4979876;28;20101;-77
2022/11/23 06:46:52;;;;;;;37.65;21.50;;;7.60;97.30;;;;;;4979855;28;20105;-77
2022/11/23 06:49:19;;;;;;;34.17;21.90;;;7.50;97.30;;;;;;4996156;28;20089;-76
2022/11/23 06:51:45;;;;;;;36.30;20.98;;;7.60;97.20;;;;;;4995967;28;20467;-77
2022/11/23 06:54:11;;;;;;;37.95;22.00;;;7.50;97.20;;;;;;4979732;28;20042;-78
2022/11/23 06:56:37;;;;;;;34.13;21.77;;;7.50;97.10;;;;;;4996076;28;20050;-78
2022/11/23 06:59:03;;;;;;;32.80;20.45;;;7.50;97.10;;;;;;4979531;28;20045;-78
2022/11/23 07:01:28;;;;;;;33.83;20.98;;;7.50;97.00;;;;;;4995778;28;20129;-77
2022/11/23 07:03:54;;;;;;;31.80;19.13;;;7.50;97.00;;;;;;4995751;28;20042;-76
2022/11/23 07:06:20;;;;;;;33.90;19.60;;;7.50;97.00;;;;;;4979764;28;20071;-76
2022/11/23 07:08:45;;;;;;;33.75;18.98;;;7.50;97.00;;;;;;4995501;28;20494;-77
2022/11/23 07:11:11;;;;;;;33.03;17.80;;;7.50;97.00;;;;;;4979358;28;20042;-77
2022/11/23 07:13:37;;;;;;;29.83;16.88;;;7.50;97.00;;;;;;4995442;28;20042;-77
2022/11/23 07:16:04;;;;;;;30.63;17.77;;;7.50;96.90;;;;;;4995622;28;20042;-78
2022/11/23 07:18:29;;;;;;;29.90;18.33;;;7.60;96.90;;;;;;4995152;28;20046;-76
2022/11/23 07:20:59;;;;;;;26.73;17.65;;;7.50;96.90;;;;;;4995310;28;20399;-77
2022/11/23 07:23:25;;;;;;;31.08;18.52;;;7.60;96.90;;;;;;4995099;28;20038;-78
2022/11/23 07:25:50;;;;;;;30.63;18.13;;;7.50;96.90;;;;;;4979080;28;20147;-78
2022/11/23 07:28:16;;;;;;;34.25;18.85;;;7.50;96.90;;;;;;4978842;28;20482;-77
2022/11/23 07:30:42;;;;;;;29.77;17.83;;;7.50;96.90;;;;;;4994764;28;20038;-77
2022/11/23 07:33:10;;;;;;;21.95;15.15;;;7.60;96.90;;;;;;4995351;28;20081;-77
2022/11/23 07:35:38;;;;;;;30.70;17.25;;;7.60;96.80;;;;;;4976852;28;20069;-80
2022/11/23 07:38:06;;;;;;;26.70;16.55;;;7.60;96.80;;;;;;4971511;28;20051;-79
2022/11/23 07:40:32;;;;;;;26.85;17.88;;;7.60;96.80;;;;;;4985578;28;20102;-79
2022/11/23 07:42:59;;;;;;;23.70;15.05;;;7.60;96.80;;;;;;4970841;28;20042;-78
2022/11/23 07:45:26;;;;;;;27.50;14.80;;;7.60;96.80;;;;;;4984585;28;20042;-78
2022/11/23 07:48:06;;;;;;;23.45;14.30;;;7.60;96.70;;;;;;4980693;28;20050;-81
2022/11/23 07:50:33;;;;;;;23.52;14.02;;;7.60;96.70;;;;;;4984549;28;20129;-79
2022/11/23 07:53:01;;;;;;;20.85;12.77;;;7.60;96.70;;;;;;4985959;28;20051;-78
2022/11/23 07:55:27;;;;;;;21.35;14.45;;;7.60;96.60;;;;;;4985731;28;20108;-79
2022/11/23 07:57:53;;;;;;;22.27;13.27;;;7.60;96.50;;;;;;4983561;28;20042;-80
2022/11/23 08:00:20;;;;;;;23.85;13.48;;;7.60;96.50;;;;;;4972341;28;20526;-80
2022/11/23 08:02:47;;;;;;;21.17;14.23;;;7.60;96.50;;;;;;4984106;28;20058;-78
2022/11/23 08:05:13;;;;;;;19.52;13.20;;;7.60;96.40;;;;;;4982641;28;20046;-80
2022/11/23 08:07:39;;;;;;;22.77;14.43;;;7.60;96.40;;;;;;4981307;28;20046;-76
2022/11/23 08:10:05;;;;;;;22.00;13.90;;;7.60;96.40;;;;;;4982331;28;20421;-79
2022/11/23 08:12:31;;;;;;;20.10;13.43;;;7.60;96.40;;;;;;5000876;28;20081;-78
2022/11/23 08:14:56;;;;;;;19.90;13.43;;;7.60;96.40;;;;;;4980645;28;20050;-78
2022/11/23 08:17:22;;;;;;;17.35;13.35;;;7.70;96.30;;;;;;4970666;28;20053;-78
2022/11/23 08:19:48;;;;;;;20.95;12.32;;;7.70;96.20;;;;;;4972041;28;20082;-79
2022/11/23 08:22:13;;;;;;;25.10;13.70;;;7.70;96.20;;;;;;4984290;28;20050;-79
2022/11/23 08:24:39;;;;;;;22.70;13.40;;;7.70;96.20;;;;;;4972035;28;20100;-77
2022/11/23 08:27:05;;;;;;;24.00;13.77;;;7.80;96.20;;;;;;4984127;28;20046;-79
2022/11/23 08:29:30;;;;;;;23.40;13.35;;;7.80;96.10;;;;;;4984641;28;20054;-78
2022/11/23 08:31:56;;;;;;;21.25;12.95;;;7.80;96.10;;;;;;4980630;28;20082;-78
2022/11/23 08:34:22;;;;;;;24.83;14.35;;;7.80;96.10;;;;;;4980748;28;20100;-79
2022/11/23 08:36:47;;;;;;;23.92;14.98;;;7.80;96.00;;;;;;4965218;28;20086;-78
2022/11/23 08:39:14;;;;;;;29.67;14.15;;;7.90;96.00;;;;;;4993990;28;20406;-77
2022/11/23 08:41:42;;;;;;;21.90;13.43;;;7.90;96.10;;;;;;4994222;28;20046;-78
2022/11/23 08:44:10;;;;;;;24.27;13.70;;;8.00;95.90;;;;;;4993906;28;20045;-78
2022/11/23 08:46:36;;;;;;;25.75;15.80;;;8.00;95.80;;;;;;4994251;28;20121;-77
2022/11/23 08:49:03;;;;;;;22.73;14.85;;;8.00;95.70;;;;;;4993763;28;20050;-77
2022/11/23 08:51:28;;;;;;;21.60;14.07;;;8.10;95.60;;;;;;4993220;28;20038;-78
2022/11/23 08:53:54;;;;;;;23.00;13.18;;;8.10;95.50;;;;;;4993844;28;20146;-77
2022/11/23 08:56:20;;;;;;;24.30;13.88;;;8.10;95.30;;;;;;4993977;28;20042;-76
2022/11/23 08:58:46;;;;;;;25.88;13.23;;;8.10;95.30;;;;;;4993581;28;20486;-77
2022/11/23 09:01:14;;;;;;;20.40;12.35;;;8.10;95.00;;;;;;4993188;28;20066;-77
2022/11/23 09:03:41;;;;;;;24.83;13.80;;;8.20;95.10;;;;;;5008907;28;20084;-77
2022/11/23 09:06:07;;;;;;;22.83;13.60;;;8.20;94.70;;;;;;4992701;28;20041;-77
2022/11/23 09:08:33;;;;;;;28.42;13.75;;;8.20;94.80;;;;;;4992305;28;20051;-77
2022/11/23 09:11:00;;;;;;;24.58;12.75;;;8.10;94.40;;;;;;4991921;28;20125;-77
2022/11/23 09:13:27;;;;;;;23.33;13.32;;;8.20;94.50;;;;;;4992252;28;20042;-78
2022/11/23 09:15:57;;;;;;;19.20;11.15;;;8.20;94.50;;;;;;4992240;28;20177;-77
2022/11/23 09:18:23;;;;;;;18.65;11.60;;;8.20;94.10;;;;;;4993301;28;20045;-77
2022/11/23 09:20:49;;;;;;;20.50;11.10;;;8.20;94.60;;;;;;5009873;28;20512;-77
2022/11/23 09:23:15;;;;;;;15.98;9.38;;;8.20;94.30;;;;;;4977034;28;20121;-78
2022/11/23 09:25:42;;;;;;;24.92;11.23;;;8.20;93.90;;;;;;4993131;28;20395;-77
2022/11/23 09:28:08;;;;;;;15.18;9.35;;;8.20;93.80;;;;;;4993030;28;20053;-77
2022/11/23 09:30:33;;;;;;;15.02;10.30;;;8.20;93.50;;;;;;4993252;28;20030;-77
2022/11/23 09:32:59;;;;;;;17.60;10.82;;;8.30;93.50;;;;;;4993223;28;20078;-77
2022/11/23 09:35:25;;;;;;;19.50;10.02;;;8.30;93.20;;;;;;4993017;28;20039;-77
2022/11/23 09:37:57;;;;;;;22.73;10.68;;;8.30;93.20;;;;;;4992829;28;20387;-77
2022/11/23 09:40:28;;;;;;;18.15;11.40;;;8.30;93.00;;;;;;4992814;28;20482;-78
2022/11/23 09:43:36;;;;;;;27.95;10.55;;;8.30;93.30;;;;;;4992960;28;20117;-77
2022/11/23 09:46:27;;;;;;;22.73;11.10;;;8.30;92.80;;;;;;5000195;28;20093;-78
2022/11/23 09:49:11;;;;;;;21.10;11.68;;;8.30;92.80;;;;;;4988839;28;20049;-77
2022/11/23 09:51:39;;;;;;;23.38;11.48;;;8.40;92.90;;;;;;4992673;28;20557;-76
2022/11/23 09:54:09;;;;;;;17.05;10.65;;;8.40;92.50;;;;;;4992649;28;20540;-76
2022/11/23 09:56:37;;;;;;;19.33;10.20;;;8.40;92.80;;;;;;4992894;28;20038;-77
2022/11/23 09:59:36;;;;;;;19.98;10.10;;;8.40;92.80;;;;;;4992564;28;20046;-78
2022/11/23 10:02:02;;;;;;;20.08;9.95;;;8.30;92.90;;;;;;4988771;28;20446;-77
2022/11/23 10:04:34;;;;;;;21.38;9.93;;;8.30;92.80;;;;;;4975537;28;20038;-77
2022/11/23 10:07:17;;;;;;;19.45;9.38;;;8.40;93.20;;;;;;5009134;28;20042;-77
2022/11/23 10:10:01;;;;;;;21.50;12.52;;;8.40;93.10;;;;;;4992494;28;20046;-77
2022/11/23 10:12:57;;;;;;;20.35;10.40;;;8.40;93.30;;;;;;4992410;28;20486;-77
2022/11/23 10:15:43;;;;;;;18.52;8.95;;;8.40;93.20;;;;;;4992463;28;20042;-77
2022/11/23 10:18:16;;;;;;;17.65;7.97;;;8.50;93.30;;;;;;5008816;28;20511;-77
2022/11/23 10:21:18;;;;;;;17.63;8.05;;;8.40;93.30;;;;;;5008904;28;20502;-77
2022/11/23 10:23:54;;;;;;;21.48;7.80;;;8.40;93.30;;;;;;4992142;28;20038;-78
2022/11/23 10:26:35;;;;;;;16.58;8.15;;;8.40;93.20;;;;;;5008706;28;20043;-77
2022/11/23 10:29:25;;;;;;;18.70;6.68;;;8.40;93.30;;;;;;5008501;28;20100;-77
2022/11/23 10:31:52;;;;;;;19.33;7.93;;;8.40;93.30;;;;;;5008679;28;20096;-77
2022/11/23 10:34:39;;;;;;;14.90;6.70;;;8.50;93.50;;;;;;5008787;28;20487;-77
2022/11/23 10:37:13;;;;;;;19.83;6.63;;;8.50;93.50;;;;;;5008520;28;20082;-78
2022/11/23 10:39:38;;;;;;;16.00;6.25;;;8.50;93.50;;;;;;5008462;28;20121;-77
2022/11/23 10:42:21;;;;;;;14.55;6.95;;;8.60;93.40;;;;;;5008540;28;20121;-77
2022/11/23 10:44:50;;;;;;;18.50;8.05;;;8.60;93.40;;;;;;5008560;28;20050;-78
2022/11/23 10:47:38;;;;;;;17.52;6.10;;;8.60;93.50;;;;;;5008539;28;20046;-78
2022/11/23 10:50:39;;;;;;;12.85;5.80;;;8.70;93.40;;;;;;5008618;28;20458;-77
2022/11/23 10:53:05;;;;;;;15.88;4.72;;;8.90;93.40;;;;;;5008647;28;20042;-78
2022/11/23 10:55:44;;;;;;;15.52;4.32;;;9.10;93.30;;;;;;4992094;28;20050;-77
2022/11/23 10:58:27;;;;;;;14.90;4.47;;;9.20;92.40;;;;;;5008379;28;20039;-77
2022/11/23 11:01:02;;;;;;;11.77;4.38;;;9.30;92.10;;;;;;5008077;28;20133;-77
2022/11/23 11:03:31;;;;;;;18.23;4.30;;;9.40;91.50;;;;;;4992113;28;20046;-77
2022/11/23 11:05:58;;;;;;;12.70;4.25;;;9.50;91.60;;;;;;5008322;28;20046;-77
2022/11/23 11:08:29;;;;;;;19.88;4.10;;;9.70;91.50;;;;;;5008202;28;20471;-77
2022/11/23 11:11:00;;;;;;;12.32;4.57;;;9.70;90.60;;;;;;5008540;28;20042;-77
2022/11/23 11:13:36;;;;;;;21.67;8.02;;;9.80;90.50;;;;;;4991903;28;20050;-77
2022/11/23 11:16:05;;;;;;;18.75;5.05;;;9.80;90.80;;;;;;4994720;28;20053;-77
2022/11/23 11:18:33;;;;;;;13.90;4.57;;;10.00;90.00;;;;;;4995446;28;20072;-77
2022/11/23 11:21:19;;;;;;;15.48;5.15;;;10.00;89.00;;;;;;5011874;28;20042;-77
2022/11/23 11:24:03;;;;;;;29.73;5.97;;;10.10;89.30;;;;;;4985301;28;20133;-77
2022/11/23 11:26:31;;;;;;;12.60;4.50;;;10.20;88.70;;;;;;5011730;28;20121;-77
2022/11/23 11:29:02;;;;;;;15.82;4.10;;;10.30;89.10;;;;;;5011868;28;20046;-77
2022/11/23 11:31:40;;;;;;;14.25;4.40;;;10.30;87.60;;;;;;5012018;28;20035;-77
2022/11/23 11:34:23;;;;;;;15.50;4.40;;;10.50;88.20;;;;;;4995601;28;20463;-77
2022/11/23 11:36:48;;;;;;;11.05;4.47;;;10.50;87.90;;;;;;5011703;28;20108;-77
2022/11/23 11:39:21;;;;;;;13.65;3.70;;;10.30;87.00;;;;;;4995173;28;20038;-77
2022/11/23 11:41:50;;;;;;;12.50;3.42;;;10.20;88.30;;;;;;5011809;28;20611;-77
2022/11/23 11:44:23;;;;;;;9.48;3.30;;;10.40;87.50;;;;;;4995275;28;20045;-77
2022/11/23 11:46:57;;;;;;;16.05;4.03;;;10.60;87.00;;;;;;4995061;28;20045;-77
2022/11/23 11:49:30;;;;;;;;;;;10.70;86.40;;;;;;5011677;28;20125;-77
2022/11/23 11:52:10;;;;;;;15.20;3.53;;;10.70;84.30;;;;;;4994962;28;19924;-77
2022/11/23 11:55:04;;;;;;;10.60;3.78;;;10.90;86.30;;;;;;4995069;28;20034;-77
2022/11/23 11:57:50;;;;;;;13.75;4.22;;;10.90;83.90;;;;;;5011259;28;20458;-77
2022/11/23 12:00:18;;;;;;;13.85;4.45;;;11.10;85.60;;;;;;5011298;28;20037;-77
2022/11/23 12:03:02;;;;;;;12.60;4.00;;;11.10;84.60;;;;;;4978585;28;20054;-77
2022/11/23 12:05:41;;;;;;;22.77;5.15;;;11.10;85.00;;;;;;5011067;28;20038;-78
2022/11/23 12:08:10;;;;;;;10.18;4.05;;;11.10;84.50;;;;;;4994560;28;20129;-77
2022/11/23 12:10:53;;;;;;;12.00;3.47;;;11.10;83.30;;;;;;5010879;28;20042;-77
2022/11/23 12:13:29;;;;;;;11.68;4.20;;;11.20;82.70;;;;;;5010904;28;20144;-77
2022/11/23 12:16:14;;;;;;;13.68;4.68;;;11.40;83.60;;;;;;5010805;28;20573;-77
2022/11/23 12:18:55;;;;;;;10.73;3.28;;;11.50;82.40;;;;;;5010704;28;20049;-77
2022/11/23 12:22:02;;;;;;;8.60;3.00;;;11.60;82.80;;;;;;4994374;28;20073;-77
2022/11/23 12:24:52;;;;;;;11.57;4.47;;;11.70;80.70;;;;;;4954583;29;20053;-77
2022/11/23 12:27:35;;;;;;;11.82;3.72;;;11.80;82.10;;;;;;4993157;28;20108;-77
2022/11/23 12:30:21;;;;;;;10.43;3.42;;;11.90;81.50;;;;;;5010628;28;20049;-78
2022/11/23 12:33:01;;;;;;;12.85;3.30;;;11.80;79.30;;;;;;4994166;28;20361;-76
2022/11/23 12:36:04;;;;;;;11.75;4.53;;;12.00;80.60;;;;;;4994182;28;20085;-77
2022/11/23 12:38:54;;;;;;;16.50;3.95;;;11.90;79.80;;;;;;5010219;28;20045;-76
2022/11/23 12:41:23;;;;;;;10.07;3.40;;;12.00;79.30;;;;;;4994277;28;20101;-77
2022/11/23 12:43:58;;;;;;;10.85;4.13;;;12.00;79.70;;;;;;5010341;28;20486;-77
2022/11/23 12:46:40;;;;;;;12.57;3.90;;;12.10;78.80;;;;;;4994000;28;20046;-76
2022/11/23 12:49:05;;;;;;;9.80;3.17;;;12.20;79.10;;;;;;4993814;28;20057;-77